Kirkland, WA

10:39 AM PDT on August 01, 2015 (GMT -0700)
Central Houghton | | Change Station
CLOSE
Current Station
Personal Weather Station
Location: Kirkland, WA
Elevation: 345 ft
Nearby Weather Stations
Active Advisory: Heat Advisory Active Notice: Record Report

Elev 345 ft 47.66 °N, 122.20 °W | Updated 3 minutes ago

Clear
Clear
73.5 °F
Feels Like 77 °F
N
2.0
Wind Variable Wind from West
Gusts 14.0 mph

Today
High -- | Low -- °F
--% Chance of Precip.
Yesterday
High -- | Low -- °F
Precip. -- in
5:45 AM 8:43 PM
Full, 98% visible
Pressure 30.01 in
Visibility 10.0 miles
Clouds Clear
Heat Index 77 °F
Dew Point 55 °F
Humidity 52%
Rainfall 0.00 in
Snow Depth Not available.
UV 5 out of 12
Pollen 4.70 out of 12
Air Quality Not available.
Flu Activity Not available.
METAR KBFI 011653Z VRB03KT 10SM CLR 23/11 A3001 RMK AO2 SLP161 T02280106

More Conditions Fewer Conditions

Pressure 30.01 in
Visibility 10.0 miles
Clouds Clear
Heat Index 77 °F
Dew Point 55 °F
Humidity 52%
Rainfall 0.00 in
Snow Depth Not available.
UV 5 out of 12
Pollen 4.70 out of 12
Air Quality Not available.
Flu Activity Not available.
METAR KBFI 011653Z VRB03KT 10SM CLR 23/11 A3001 RMK AO2 SLP161 T02280106

More Conditions Fewer Conditions

10-Day Weather Forecast

×

Almanac

Astronomy

Aug. 01, 2015 Rise Set
Actual Time
Civil Twilight
Nautical Twilight
Astronomical Twilight
Moon
Length of Visible Light
Length of Day
Tomorrow will be .
, % of the Moon is Illuminated

Today's Extremes

State Highs State Lows

Community

WunderPhotos

Upload Photos

1,843,003 photos uploaded!

WunderBlogs® & News

Nearby

Air Quality

  Air Quality AQ Index Pollutant
Not available.

Snow Depth

Station Depth Elevation

Earthquake Activity

City Distance Mag. Time & Date
Minimum magnitude displayed is 2.5.

Coastal Water Temperatures

Place Temperature

Stations

Nearby Weather Stations

Station Location Temp. Windchill Dew Point Humidity Wind Precip. Elev Updated Type
                   
Heat Advisory
Statement as of 4:08 AM PDT on August 01, 2015

... Heat advisory remains in effect until 8 PM PDT Sunday...

* temperatures... highs in the upper 80s to mid 90s Saturday...
then mid 80s to lower 90s on Sunday. Lows will be in the 50s
to lower 60s.

* Impacts... hot temperatures can place extra stress on the body
and possibly lead to dehydration and heat exhaustion. Drink
plenty of fluids.

Precautionary/preparedness actions...

Take extra precautions... if you work or spend time outside...
reschedule strenuous activities to early morning or evening if
possible. Know the signs and symptoms of heat exhaustion and heat
stroke. Wear light weight and loose fitting clothing when
possible and drink plenty of water. The interior of automobiles
can become very hot creating a danger if children or pets are
left unattended. Check up on relatives and neighbors.